Terminal Aerodrome Forecast
Issued by NWS Pueblo, CO

Home | Current Version | Previous Version | Text Only | Print | Product List | Glossary On
Versions: 1 2 3 4 5 6 7 8 9 10 11 12 13 14 15 16 17 18 19 20 21 22 23 24 25
000
FTUS45 KPUB 191726
TAFCOS
TAF
KCOS 191726Z 1918/2018 22015G30KT P6SM SCT200
     FM192000 24020G32KT P6SM SCT200
     FM200200 28015KT P6SM SKC
     FM200500 01007KT P6SM SKC
     FM201000 08010KT P6SM SKC
     FM201500 16008KT P6SM SKC=

USA.gov is the U.S. government's official web portal to all federal, state and local government web resources and services.